sensor_id;sensor_type;location;lat;lon;timestamp;pressure;altitude;pressure_sealevel;temperature;humidity
65614;BME280;52283;49.292;10.572;2023-03-14T00:00:49;94763.75;;;8.35;100.00
65614;BME280;52283;49.292;10.572;2023-03-14T00:03:16;94765.38;;;8.43;100.00
65614;BME280;52283;49.292;10.572;2023-03-14T00:05:43;94756.06;;;8.41;100.00
65614;BME280;52283;49.292;10.572;2023-03-14T00:08:09;94760.66;;;8.38;100.00
65614;BME280;52283;49.292;10.572;2023-03-14T00:10:36;94774.25;;;8.42;100.00
65614;BME280;52283;49.292;10.572;2023-03-14T00:13:04;94775.00;;;8.42;100.00
65614;BME280;52283;49.292;10.572;2023-03-14T00:15:32;94765.25;;;8.36;100.00
65614;BME280;52283;49.292;10.572;2023-03-14T00:17:58;94766.13;;;8.44;100.00
65614;BME280;52283;49.292;10.572;2023-03-14T00:20:24;94760.97;;;8.35;100.00
65614;BME280;52283;49.292;10.572;2023-03-14T00:22:51;94803.81;;;8.45;100.00
65614;BME280;52283;49.292;10.572;2023-03-14T00:25:17;94827.16;;;8.42;100.00
65614;BME280;52283;49.292;10.572;2023-03-14T00:27:44;94819.91;;;8.33;100.00
65614;BME280;52283;49.292;10.572;2023-03-14T00:30:12;94824.88;;;8.40;100.00
65614;BME280;52283;49.292;10.572;2023-03-14T00:32:38;94849.31;;;8.29;100.00
65614;BME280;52283;49.292;10.572;2023-03-14T00:35:05;94854.44;;;8.24;100.00
65614;BME280;52283;49.292;10.572;2023-03-14T00:37:32;94849.63;;;8.44;100.00
65614;BME280;52283;49.292;10.572;2023-03-14T00:39:58;94849.41;;;8.42;100.00
65614;BME280;52283;49.292;10.572;2023-03-14T00:42:25;94848.78;;;8.30;100.00
65614;BME280;52283;49.292;10.572;2023-03-14T00:44:51;94847.59;;;8.44;100.00
65614;BME280;52283;49.292;10.572;2023-03-14T00:47:19;94837.63;;;8.36;100.00
65614;BME280;52283;49.292;10.572;2023-03-14T00:49:45;94840.66;;;8.32;100.00
65614;BME280;52283;49.292;10.572;2023-03-14T00:52:12;94845.25;;;8.30;100.00
65614;BME280;52283;49.292;10.572;2023-03-14T00:54:39;94799.22;;;8.29;100.00
65614;BME280;52283;49.292;10.572;2023-03-14T00:57:05;94787.75;;;8.38;100.00
65614;BME280;52283;49.292;10.572;2023-03-14T00:59:32;94777.13;;;8.36;100.00
65614;BME280;52283;49.292;10.572;2023-03-14T01:01:58;94784.63;;;8.22;100.00
65614;BME280;52283;49.292;10.572;2023-03-14T01:04:26;94779.06;;;8.22;100.00
65614;BME280;52283;49.292;10.572;2023-03-14T01:06:53;94801.22;;;8.34;100.00
65614;BME280;52283;49.292;10.572;2023-03-14T01:09:19;94795.47;;;8.26;100.00
65614;BME280;52283;49.292;10.572;2023-03-14T01:11:45;94777.66;;;8.35;100.00
65614;BME280;52283;49.292;10.572;2023-03-14T01:14:12;94754.34;;;8.38;100.00
65614;BME280;52283;49.292;10.572;2023-03-14T01:16:39;94749.56;;;8.33;100.00
65614;BME280;52283;49.292;10.572;2023-03-14T01:19:05;94753.28;;;8.41;100.00
65614;BME280;52283;49.292;10.572;2023-03-14T01:21:35;94753.63;;;8.32;100.00
65614;BME280;52283;49.292;10.572;2023-03-14T01:24:03;94742.66;;;8.39;100.00
65614;BME280;52283;49.292;10.572;2023-03-14T01:26:31;94729.09;;;8.30;100.00
65614;BME280;52283;49.292;10.572;2023-03-14T01:28:59;94719.25;;;8.29;100.00
65614;BME280;52283;49.292;10.572;2023-03-14T01:31:26;94720.31;;;8.26;100.00
65614;BME280;52283;49.292;10.572;2023-03-14T01:33:53;94736.13;;;8.37;100.00
65614;BME280;52283;49.292;10.572;2023-03-14T01:36:19;94728.31;;;8.35;100.00
65614;BME280;52283;49.292;10.572;2023-03-14T01:38:47;94734.31;;;8.39;100.00
65614;BME280;52283;49.292;10.572;2023-03-14T01:41:15;94746.00;;;8.51;100.00
65614;BME280;52283;49.292;10.572;2023-03-14T01:43:42;94754.69;;;8.47;100.00
65614;BME280;52283;49.292;10.572;2023-03-14T01:46:17;94754.50;;;8.59;100.00
65614;BME280;52283;49.292;10.572;2023-03-14T01:48:49;94756.19;;;8.48;100.00
65614;BME280;52283;49.292;10.572;2023-03-14T01:51:21;94740.75;;;8.47;100.00
65614;BME280;52283;49.292;10.572;2023-03-14T01:53:51;94740.66;;;8.53;100.00
65614;BME280;52283;49.292;10.572;2023-03-14T01:56:20;94732.97;;;8.59;100.00
65614;BME280;52283;49.292;10.572;2023-03-14T01:58:48;94726.63;;;8.45;100.00
65614;BME280;52283;49.292;10.572;2023-03-14T02:01:18;94730.69;;;8.44;100.00
65614;BME280;52283;49.292;10.572;2023-03-14T02:03:48;94716.03;;;8.44;100.00
65614;BME280;52283;49.292;10.572;2023-03-14T02:06:19;94719.59;;;8.58;100.00
65614;BME280;52283;49.292;10.572;2023-03-14T02:08:47;94701.06;;;8.60;100.00
65614;BME280;52283;49.292;10.572;2023-03-14T02:11:17;94691.63;;;8.50;100.00
65614;BME280;52283;49.292;10.572;2023-03-14T02:13:44;94691.84;;;8.52;100.00
65614;BME280;52283;49.292;10.572;2023-03-14T02:16:10;94683.72;;;8.54;100.00
65614;BME280;52283;49.292;10.572;2023-03-14T02:18:37;94688.75;;;8.55;100.00
65614;BME280;52283;49.292;10.572;2023-03-14T02:21:10;94692.16;;;8.48;100.00
65614;BME280;52283;49.292;10.572;2023-03-14T02:23:43;94680.41;;;8.55;100.00
65614;BME280;52283;49.292;10.572;2023-03-14T02:26:17;94683.81;;;8.48;100.00
65614;BME280;52283;49.292;10.572;2023-03-14T02:28:47;94679.66;;;8.55;100.00
65614;BME280;52283;49.292;10.572;2023-03-14T02:31:14;94679.19;;;8.51;100.00
65614;BME280;52283;49.292;10.572;2023-03-14T02:33:41;94673.34;;;8.54;100.00
65614;BME280;52283;49.292;10.572;2023-03-14T02:36:11;94683.59;;;8.46;100.00
65614;BME280;52283;49.292;10.572;2023-03-14T02:38:44;94675.03;;;8.44;100.00
65614;BME280;52283;49.292;10.572;2023-03-14T02:41:13;94681.00;;;8.48;100.00
65614;BME280;52283;49.292;10.572;2023-03-14T02:43:39;94662.81;;;8.47;100.00
65614;BME280;52283;49.292;10.572;2023-03-14T02:46:09;94672.22;;;8.44;100.00
65614;BME280;52283;49.292;10.572;2023-03-14T02:48:39;94665.28;;;8.38;100.00
65614;BME280;52283;49.292;10.572;2023-03-14T02:51:06;94670.09;;;8.37;100.00
65614;BME280;52283;49.292;10.572;2023-03-14T02:53:36;94670.09;;;8.37;100.00
65614;BME280;52283;49.292;10.572;2023-03-14T02:56:04;94673.66;;;8.32;100.00
65614;BME280;52283;49.292;10.572;2023-03-14T02:58:31;94680.63;;;8.25;100.00
65614;BME280;52283;49.292;10.572;2023-03-14T03:00:57;94675.38;;;8.22;100.00
65614;BME280;52283;49.292;10.572;2023-03-14T03:03:25;94669.88;;;8.35;100.00
65614;BME280;52283;49.292;10.572;2023-03-14T03:05:53;94672.66;;;8.35;100.00
65614;BME280;52283;49.292;10.572;2023-03-14T03:08:21;94671.31;;;8.23;100.00
65614;BME280;52283;49.292;10.572;2023-03-14T03:10:48;94658.78;;;8.30;100.00
65614;BME280;52283;49.292;10.572;2023-03-14T03:13:14;94663.38;;;8.27;100.00
65614;BME280;52283;49.292;10.572;2023-03-14T03:15:41;94676.00;;;8.28;100.00
65614;BME280;52283;49.292;10.572;2023-03-14T03:18:07;94661.56;;;8.30;100.00
65614;BME280;52283;49.292;10.572;2023-03-14T03:20:35;94659.09;;;8.13;100.00
65614;BME280;52283;49.292;10.572;2023-03-14T03:23:02;94661.56;;;8.16;100.00
65614;BME280;52283;49.292;10.572;2023-03-14T03:25:28;94668.63;;;8.17;100.00
65614;BME280;52283;49.292;10.572;2023-03-14T03:27:55;94673.50;;;8.11;100.00
65614;BME280;52283;49.292;10.572;2023-03-14T03:30:21;94659.94;;;8.21;100.00
65614;BME280;52283;49.292;10.572;2023-03-14T03:32:48;94657.28;;;8.15;100.00
65614;BME280;52283;49.292;10.572;2023-03-14T03:35:15;94665.31;;;8.19;100.00
65614;BME280;52283;49.292;10.572;2023-03-14T03:37:43;94663.69;;;8.23;100.00
65614;BME280;52283;49.292;10.572;2023-03-14T03:40:10;94670.66;;;8.17;100.00
65614;BME280;52283;49.292;10.572;2023-03-14T03:42:37;94662.75;;;8.21;100.00
65614;BME280;52283;49.292;10.572;2023-03-14T03:45:04;94657.06;;;8.26;100.00
65614;BME280;52283;49.292;10.572;2023-03-14T03:47:31;94645.69;;;8.11;100.00
65614;BME280;52283;49.292;10.572;2023-03-14T03:49:57;94644.19;;;8.10;100.00
65614;BME280;52283;49.292;10.572;2023-03-14T03:52:24;94625.25;;;8.09;100.00
65614;BME280;52283;49.292;10.572;2023-03-14T03:54:51;94624.06;;;8.04;100.00
65614;BME280;52283;49.292;10.572;2023-03-14T03:57:18;94616.38;;;8.10;100.00
65614;BME280;52283;49.292;10.572;2023-03-14T03:59:44;94617.13;;;8.11;100.00
65614;BME280;52283;49.292;10.572;2023-03-14T04:02:11;94620.25;;;8.20;100.00
65614;BME280;52283;49.292;10.572;2023-03-14T04:04:37;94610.59;;;8.08;100.00
65614;BME280;52283;49.292;10.572;2023-03-14T04:07:04;94614.25;;;8.16;100.00
65614;BME280;52283;49.292;10.572;2023-03-14T04:09:31;94632.97;;;8.16;100.00
65614;BME280;52283;49.292;10.572;2023-03-14T04:11:59;94624.53;;;8.21;100.00
65614;BME280;52283;49.292;10.572;2023-03-14T04:14:25;94621.22;;;8.23;100.00
65614;BME280;52283;49.292;10.572;2023-03-14T04:16:52;94607.19;;;8.15;100.00
65614;BME280;52283;49.292;10.572;2023-03-14T04:19:18;94609.66;;;8.19;100.00
65614;BME280;52283;49.292;10.572;2023-03-14T04:21:45;94605.63;;;8.33;100.00
65614;BME280;52283;49.292;10.572;2023-03-14T04:24:12;94603.97;;;8.24;100.00
65614;BME280;52283;49.292;10.572;2023-03-14T04:26:38;94612.00;;;8.28;100.00
65614;BME280;52283;49.292;10.572;2023-03-14T04:29:06;94598.63;;;8.26;100.00
65614;BME280;52283;49.292;10.572;2023-03-14T04:31:32;94605.13;;;8.35;100.00
65614;BME280;52283;49.292;10.572;2023-03-14T04:33:59;94599.00;;;8.36;100.00
65614;BME280;52283;49.292;10.572;2023-03-14T04:36:25;94601.78;;;8.36;100.00
65614;BME280;52283;49.292;10.572;2023-03-14T04:38:52;94602.59;;;8.31;100.00
65614;BME280;52283;49.292;10.572;2023-03-14T04:41:18;94605.31;;;8.37;100.00
65614;BME280;52283;49.292;10.572;2023-03-14T04:43:45;94603.06;;;8.35;100.00
65614;BME280;52283;49.292;10.572;2023-03-14T04:46:13;94609.22;;;8.28;100.00
65614;BME280;52283;49.292;10.572;2023-03-14T04:48:39;94610.19;;;8.31;100.00
65614;BME280;52283;49.292;10.572;2023-03-14T04:51:06;94607.09;;;8.21;100.00
65614;BME280;52283;49.292;10.572;2023-03-14T04:53:33;94615.00;;;8.17;100.00
65614;BME280;52283;49.292;10.572;2023-03-14T04:56:01;94608.75;;;8.11;100.00
65614;BME280;52283;49.292;10.572;2023-03-14T04:58:28;94603.94;;;8.11;100.00
65614;BME280;52283;49.292;10.572;2023-03-14T05:00:54;94603.41;;;8.00;100.00
65614;BME280;52283;49.292;10.572;2023-03-14T05:03:22;94598.28;;;8.04;100.00
65614;BME280;52283;49.292;10.572;2023-03-14T05:05:48;94604.53;;;7.91;100.00
65614;BME280;52283;49.292;10.572;2023-03-14T05:08:15;94602.66;;;7.99;100.00
65614;BME280;52283;49.292;10.572;2023-03-14T05:10:41;94601.69;;;7.97;100.00
65614;BME280;52283;49.292;10.572;2023-03-14T05:13:08;94599.66;;;8.10;100.00
65614;BME280;52283;49.292;10.572;2023-03-14T05:15:34;94608.22;;;7.99;100.00
65614;BME280;52283;49.292;10.572;2023-03-14T05:18:11;94597.84;;;8.00;100.00
65614;BME280;52283;49.292;10.572;2023-03-14T05:20:41;94598.81;;;8.02;100.00
65614;BME280;52283;49.292;10.572;2023-03-14T05:23:09;94601.59;;;8.02;100.00
65614;BME280;52283;49.292;10.572;2023-03-14T05:25:35;94596.25;;;8.04;100.00
65614;BME280;52283;49.292;10.572;2023-03-14T05:28:02;94596.13;;;8.10;100.00
65614;BME280;52283;49.292;10.572;2023-03-14T05:30:28;94604.47;;;8.10;100.00
65614;BME280;52283;49.292;10.572;2023-03-14T05:32:56;94584.63;;;8.19;100.00
65614;BME280;52283;49.292;10.572;2023-03-14T05:35:22;94579.78;;;8.19;100.00
65614;BME280;52283;49.292;10.572;2023-03-14T05:37:50;94577.88;;;8.27;100.00
65614;BME280;52283;49.292;10.572;2023-03-14T05:40:17;94577.75;;;8.20;100.00
65614;BME280;52283;49.292;10.572;2023-03-14T05:42:43;94568.56;;;8.25;100.00
65614;BME280;52283;49.292;10.572;2023-03-14T05:45:10;94569.72;;;8.30;100.00
65614;BME280;52283;49.292;10.572;2023-03-14T05:47:37;94565.78;;;8.25;100.00
65614;BME280;52283;49.292;10.572;2023-03-14T05:50:04;94554.75;;;8.33;100.00
65614;BME280;52283;49.292;10.572;2023-03-14T05:52:31;94567.66;;;8.62;100.00
65614;BME280;52283;49.292;10.572;2023-03-14T05:54:58;94559.19;;;8.54;100.00
65614;BME280;52283;49.292;10.572;2023-03-14T05:57:25;94562.84;;;8.36;100.00
65614;BME280;52283;49.292;10.572;2023-03-14T05:59:51;94570.50;;;8.17;100.00
65614;BME280;52283;49.292;10.572;2023-03-14T06:02:18;94566.31;;;8.23;100.00
65614;BME280;52283;49.292;10.572;2023-03-14T06:04:44;94558.38;;;8.27;100.00
65614;BME280;52283;49.292;10.572;2023-03-14T06:07:11;94565.44;;;8.29;100.00
65614;BME280;52283;49.292;10.572;2023-03-14T06:09:37;94559.34;;;8.17;100.00
65614;BME280;52283;49.292;10.572;2023-03-14T06:12:06;94559.69;;;8.26;100.00
65614;BME280;52283;49.292;10.572;2023-03-14T06:14:32;94559.88;;;8.29;100.00
65614;BME280;52283;49.292;10.572;2023-03-14T06:16:59;94559.78;;;8.21;100.00
65614;BME280;52283;49.292;10.572;2023-03-14T06:19:25;94555.88;;;8.43;100.00
65614;BME280;52283;49.292;10.572;2023-03-14T06:21:52;94566.00;;;8.27;100.00
65614;BME280;52283;49.292;10.572;2023-03-14T06:24:18;94545.66;;;8.32;100.00
65614;BME280;52283;49.292;10.572;2023-03-14T06:26:45;94555.19;;;8.23;100.00
65614;BME280;52283;49.292;10.572;2023-03-14T06:29:13;94548.22;;;8.30;100.00
65614;BME280;52283;49.292;10.572;2023-03-14T06:31:39;94548.22;;;8.30;100.00
65614;BME280;52283;49.292;10.572;2023-03-14T06:34:05;94561.88;;;8.34;100.00
65614;BME280;52283;49.292;10.572;2023-03-14T06:36:32;94550.59;;;8.26;100.00
65614;BME280;52283;49.292;10.572;2023-03-14T06:38:58;94558.38;;;8.27;100.00
65614;BME280;52283;49.292;10.572;2023-03-14T06:41:25;94562.84;;;8.36;100.00
65614;BME280;52283;49.292;10.572;2023-03-14T06:43:52;94564.28;;;8.24;100.00
65614;BME280;52283;49.292;10.572;2023-03-14T06:46:20;94573.00;;;8.34;100.00
65614;BME280;52283;49.292;10.572;2023-03-14T06:48:46;94566.16;;;8.35;100.00
65614;BME280;52283;49.292;10.572;2023-03-14T06:51:13;94569.25;;;8.44;100.00
65614;BME280;52283;49.292;10.572;2023-03-14T06:53:39;94576.31;;;8.45;100.00
65614;BME280;52283;49.292;10.572;2023-03-14T06:56:07;94575.91;;;8.54;100.00
65614;BME280;52283;49.292;10.572;2023-03-14T06:58:34;94567.31;;;8.52;100.00
65614;BME280;52283;49.292;10.572;2023-03-14T07:01:00;94567.97;;;8.59;100.00
65614;BME280;52283;49.292;10.572;2023-03-14T07:03:28;94565.59;;;8.63;100.00
65614;BME280;52283;49.292;10.572;2023-03-14T07:05:54;94576.09;;;8.70;100.00
65614;BME280;52283;49.292;10.572;2023-03-14T07:08:21;94570.53;;;8.70;100.00
65614;BME280;52283;49.292;10.572;2023-03-14T07:10:47;94573.75;;;8.61;100.00
65614;BME280;52283;49.292;10.572;2023-03-14T07:13:14;94575.47;;;8.77;100.00
65614;BME280;52283;49.292;10.572;2023-03-14T07:15:40;94572.47;;;8.75;100.00
65614;BME280;52283;49.292;10.572;2023-03-14T07:18:07;94586.06;;;8.78;100.00
65614;BME280;52283;49.292;10.572;2023-03-14T07:20:35;94571.78;;;8.95;100.00
65614;BME280;52283;49.292;10.572;2023-03-14T07:23:01;94563.31;;;8.88;100.00
65614;BME280;52283;49.292;10.572;2023-03-14T07:25:28;94582.50;;;8.91;100.00
65614;BME280;52283;49.292;10.572;2023-03-14T07:27:55;94568.16;;;8.87;100.00
65614;BME280;52283;49.292;10.572;2023-03-14T07:30:21;94570.72;;;8.98;100.00
65614;BME280;52283;49.292;10.572;2023-03-14T07:32:48;94576.09;;;8.96;100.00
65614;BME280;52283;49.292;10.572;2023-03-14T07:35:14;94583.22;;;9.05;100.00
65614;BME280;52283;49.292;10.572;2023-03-14T07:37:42;94569.63;;;9.01;100.00
65614;BME280;52283;49.292;10.572;2023-03-14T07:40:09;94576.16;;;9.04;100.00
65614;BME280;52283;49.292;10.572;2023-03-14T07:42:39;94596.34;;;8.97;100.00
65614;BME280;52283;49.292;10.572;2023-03-14T07:45:07;94595.75;;;9.11;100.00
65614;BME280;52283;49.292;10.572;2023-03-14T07:47:34;94601.88;;;9.10;100.00
65614;BME280;52283;49.292;10.572;2023-03-14T07:50:00;94601.00;;;9.15;100.00
65614;BME280;52283;49.292;10.572;2023-03-14T07:52:27;94609.53;;;9.30;100.00
65614;BME280;52283;49.292;10.572;2023-03-14T07:54:55;94591.19;;;9.35;100.00
65614;BME280;52283;49.292;10.572;2023-03-14T07:57:22;94592.38;;;9.39;100.00
65614;BME280;52283;49.292;10.572;2023-03-14T07:59:49;94599.53;;;9.48;100.00
65614;BME280;52283;49.292;10.572;2023-03-14T08:02:15;94602.38;;;9.56;100.00
65614;BME280;52283;49.292;10.572;2023-03-14T08:04:43;94596.50;;;9.59;100.00
65614;BME280;52283;49.292;10.572;2023-03-14T08:07:09;94585.19;;;9.44;100.00
65614;BME280;52283;49.292;10.572;2023-03-14T08:09:36;94592.13;;;9.51;100.00
65614;BME280;52283;49.292;10.572;2023-03-14T08:12:04;94595.09;;;9.53;100.00
65614;BME280;52283;49.292;10.572;2023-03-14T08:14:31;94597.44;;;9.62;100.00
65614;BME280;52283;49.292;10.572;2023-03-14T08:16:57;94597.25;;;9.60;100.00
65614;BME280;52283;49.292;10.572;2023-03-14T08:19:24;94593.19;;;9.47;100.00
65614;BME280;52283;49.292;10.572;2023-03-14T08:21:51;94588.56;;;9.50;100.00
65614;BME280;52283;49.292;10.572;2023-03-14T08:24:17;94598.84;;;9.55;100.00
65614;BME280;52283;49.292;10.572;2023-03-14T08:26:44;94584.81;;;9.61;100.00
65614;BME280;52283;49.292;10.572;2023-03-14T08:29:12;94579.34;;;9.55;100.00
65614;BME280;52283;49.292;10.572;2023-03-14T08:31:38;94570.91;;;9.68;100.00
65614;BME280;52283;49.292;10.572;2023-03-14T08:34:04;94569.84;;;9.71;100.00
65614;BME280;52283;49.292;10.572;2023-03-14T08:36:32;94564.53;;;9.81;100.00
65614;BME280;52283;49.292;10.572;2023-03-14T08:38:58;94558.69;;;9.92;100.00
65614;BME280;52283;49.292;10.572;2023-03-14T08:41:25;94550.03;;;10.03;100.00
65614;BME280;52283;49.292;10.572;2023-03-14T08:43:51;94556.56;;;10.27;100.00
65614;BME280;52283;49.292;10.572;2023-03-14T08:46:19;94547.34;;;10.19;100.00
65614;BME280;52283;49.292;10.572;2023-03-14T08:48:45;94556.63;;;10.14;100.00
65614;BME280;52283;49.292;10.572;2023-03-14T08:51:13;94564.34;;;10.21;100.00
65614;BME280;52283;49.292;10.572;2023-03-14T08:53:40;94559.97;;;10.12;100.00
65614;BME280;52283;49.292;10.572;2023-03-14T08:56:08;94569.94;;;10.21;100.00
65614;BME280;52283;49.292;10.572;2023-03-14T08:58:35;94564.09;;;10.39;100.00
65614;BME280;52283;49.292;10.572;2023-03-14T09:01:03;94542.75;;;10.21;100.00
65614;BME280;52283;49.292;10.572;2023-03-14T09:03:31;94563.22;;;10.45;100.00
65614;BME280;52283;49.292;10.572;2023-03-14T09:06:01;94561.84;;;10.38;100.00
65614;BME280;52283;49.292;10.572;2023-03-14T09:08:29;94552.78;;;10.45;100.00
65614;BME280;52283;49.292;10.572;2023-03-14T09:10:56;94548.44;;;10.36;100.00
65614;BME280;52283;49.292;10.572;2023-03-14T09:13:22;94556.56;;;10.55;100.00
65614;BME280;52283;49.292;10.572;2023-03-14T09:15:50;94558.31;;;10.66;100.00
65614;BME280;52283;49.292;10.572;2023-03-14T09:18:17;94553.94;;;10.50;100.00
65614;BME280;52283;49.292;10.572;2023-03-14T09:20:45;94537.41;;;10.95;100.00
65614;BME280;52283;49.292;10.572;2023-03-14T09:23:11;94538.03;;;11.09;100.00
65614;BME280;52283;49.292;10.572;2023-03-14T09:25:37;94536.28;;;11.50;100.00
65614;BME280;52283;49.292;10.572;2023-03-14T09:28:04;94537.41;;;11.62;99.50
65614;BME280;52283;49.292;10.572;2023-03-14T09:30:30;94531.66;;;11.01;96.91
65614;BME280;52283;49.292;10.572;2023-03-14T09:32:57;94550.63;;;10.95;99.45
65614;BME280;52283;49.292;10.572;2023-03-14T09:35:24;94551.25;;;10.65;99.79
65614;BME280;52283;49.292;10.572;2023-03-14T09:37:52;94530.97;;;10.72;100.00
65614;BME280;52283;49.292;10.572;2023-03-14T09:40:20;94537.97;;;11.02;99.29
65614;BME280;52283;49.292;10.572;2023-03-14T09:42:47;94560.59;;;10.75;100.00
65614;BME280;52283;49.292;10.572;2023-03-14T09:45:21;94551.09;;;10.78;98.73
65614;BME280;52283;49.292;10.572;2023-03-14T09:47:49;94566.06;;;10.88;99.83
65614;BME280;52283;49.292;10.572;2023-03-14T09:50:16;94541.91;;;10.62;99.84
65614;BME280;52283;49.292;10.572;2023-03-14T09:52:45;94541.97;;;10.78;99.58
65614;BME280;52283;49.292;10.572;2023-03-14T09:55:16;94560.13;;;10.92;98.91
65614;BME280;52283;49.292;10.572;2023-03-14T09:57:44;94554.25;;;10.75;98.36
65614;BME280;52283;49.292;10.572;2023-03-14T10:00:15;94558.94;;;10.80;98.60
65614;BME280;52283;49.292;10.572;2023-03-14T10:02:45;94544.84;;;10.93;98.84
65614;BME280;52283;49.292;10.572;2023-03-14T10:05:15;94547.09;;;10.94;98.82
65614;BME280;52283;49.292;10.572;2023-03-14T10:07:41;94550.53;;;10.72;98.55
65614;BME280;52283;49.292;10.572;2023-03-14T10:10:11;94556.31;;;10.74;97.51
65614;BME280;52283;49.292;10.572;2023-03-14T10:12:40;94552.41;;;10.77;98.07
65614;BME280;52283;49.292;10.572;2023-03-14T10:15:10;94539.53;;;10.74;98.18
65614;BME280;52283;49.292;10.572;2023-03-14T10:17:40;94547.34;;;11.04;97.37
65614;BME280;52283;49.292;10.572;2023-03-14T10:20:26;94541.88;;;10.98;98.94
65614;BME280;52283;49.292;10.572;2023-03-14T10:22:57;94548.84;;;11.13;98.41
65614;BME280;52283;49.292;10.572;2023-03-14T10:25:26;94543.63;;;11.83;93.07
65614;BME280;52283;49.292;10.572;2023-03-14T10:27:55;94522.50;;;11.59;93.15
65614;BME280;52283;49.292;10.572;2023-03-14T10:30:32;94547.88;;;11.61;95.06
65614;BME280;52283;49.292;10.572;2023-03-14T10:33:07;94538.19;;;11.78;93.58
65614;BME280;52283;49.292;10.572;2023-03-14T10:35:34;94533.66;;;11.37;93.34
65614;BME280;52283;49.292;10.572;2023-03-14T10:38:02;94527.47;;;11.30;95.66
65614;BME280;52283;49.292;10.572;2023-03-14T10:40:31;94536.56;;;11.16;98.14
65614;BME280;52283;49.292;10.572;2023-03-14T10:42:59;94540.47;;;11.13;98.64
65614;BME280;52283;49.292;10.572;2023-03-14T10:45:35;94539.91;;;11.07;100.00
65614;BME280;52283;49.292;10.572;2023-03-14T10:48:20;94554.97;;;11.04;100.00
65614;BME280;52283;49.292;10.572;2023-03-14T10:50:55;94571.19;;;10.69;100.00
65614;BME280;52283;49.292;10.572;2023-03-14T10:53:22;94586.50;;;10.47;100.00
65614;BME280;52283;49.292;10.572;2023-03-14T10:55:49;94589.53;;;10.28;100.00
65614;BME280;52283;49.292;10.572;2023-03-14T10:58:20;94574.72;;;10.20;100.00
65614;BME280;52283;49.292;10.572;2023-03-14T11:00:52;94595.25;;;10.23;100.00
65614;BME280;52283;49.292;10.572;2023-03-14T11:03:21;94575.75;;;10.30;100.00
65614;BME280;52283;49.292;10.572;2023-03-14T11:05:51;94579.00;;;10.71;100.00
65614;BME280;52283;49.292;10.572;2023-03-14T11:08:25;94569.53;;;11.10;100.00
65614;BME280;52283;49.292;10.572;2023-03-14T11:10:54;94563.56;;;11.72;100.00
65614;BME280;52283;49.292;10.572;2023-03-14T11:13:29;94567.56;;;12.15;100.00
65614;BME280;52283;49.292;10.572;2023-03-14T11:16:03;94558.03;;;11.95;100.00
65614;BME280;52283;49.292;10.572;2023-03-14T11:18:51;94529.66;;;12.06;100.00
65614;BME280;52283;49.292;10.572;2023-03-14T11:21:25;94529.47;;;11.89;100.00
65614;BME280;52283;49.292;10.572;2023-03-14T11:24:05;94534.88;;;11.79;98.15
65614;BME280;52283;49.292;10.572;2023-03-14T11:26:37;94510.03;;;11.76;95.75
65614;BME280;52283;49.292;10.572;2023-03-14T11:29:20;94524.44;;;11.95;93.36
65614;BME280;52283;49.292;10.572;2023-03-14T11:31:47;94515.00;;;12.69;88.64
65614;BME280;52283;49.292;10.572;2023-03-14T11:34:16;94515.66;;;12.06;90.79
65614;BME280;52283;49.292;10.572;2023-03-14T11:36:50;94503.09;;;12.61;87.59
65614;BME280;52283;49.292;10.572;2023-03-14T11:39:20;94496.25;;;12.24;88.71
65614;BME280;52283;49.292;10.572;2023-03-14T11:41:49;94497.72;;;12.25;85.39
65614;BME280;52283;49.292;10.572;2023-03-14T11:44:20;94477.59;;;11.96;86.85
65614;BME280;52283;49.292;10.572;2023-03-14T11:46:49;94497.75;;;12.02;89.17
65614;BME280;52283;49.292;10.572;2023-03-14T11:49:30;94494.38;;;12.18;85.88
65614;BME280;52283;49.292;10.572;2023-03-14T11:51:59;94519.41;;;12.16;85.16
65614;BME280;52283;49.292;10.572;2023-03-14T11:54:35;94498.47;;;12.25;83.17
65614;BME280;52283;49.292;10.572;2023-03-14T11:57:11;94480.72;;;12.38;82.65
65614;BME280;52283;49.292;10.572;2023-03-14T11:59:47;94491.38;;;12.32;81.84
65614;BME280;52283;49.292;10.572;2023-03-14T12:02:22;94494.47;;;12.74;82.42
65614;BME280;52283;49.292;10.572;2023-03-14T12:05:20;94494.16;;;13.02;79.90
65614;BME280;52283;49.292;10.572;2023-03-14T12:08:03;94484.59;;;12.58;80.03
65614;BME280;52283;49.292;10.572;2023-03-14T12:10:43;94491.47;;;12.72;78.36
65614;BME280;52283;49.292;10.572;2023-03-14T12:13:13;94505.56;;;12.34;81.18
65614;BME280;52283;49.292;10.572;2023-03-14T12:15:48;94482.81;;;12.14;81.57
65614;BME280;52283;49.292;10.572;2023-03-14T12:18:19;94470.50;;;11.95;80.74
65614;BME280;52283;49.292;10.572;2023-03-14T12:20:50;94492.91;;;12.10;79.80
65614;BME280;52283;49.292;10.572;2023-03-14T12:23:17;94518.84;;;12.03;80.69
65614;BME280;52283;49.292;10.572;2023-03-14T12:25:45;94517.53;;;11.88;82.07
65614;BME280;52283;49.292;10.572;2023-03-14T12:28:18;94547.88;;;11.61;88.68
65614;BME280;52283;49.292;10.572;2023-03-14T12:30:46;94555.88;;;11.50;91.78
65614;BME280;52283;49.292;10.572;2023-03-14T12:33:31;94542.78;;;10.57;100.00
65614;BME280;52283;49.292;10.572;2023-03-14T12:36:18;94579.69;;;10.14;100.00
65614;BME280;52283;49.292;10.572;2023-03-14T12:39:10;94575.34;;;10.05;100.00
65614;BME280;52283;49.292;10.572;2023-03-14T12:41:44;94578.81;;;9.77;100.00
65614;BME280;52283;49.292;10.572;2023-03-14T12:44:44;94577.50;;;9.78;100.00
65614;BME280;52283;49.292;10.572;2023-03-14T12:50:32;94581.28;;;9.81;100.00
65614;BME280;52283;49.292;10.572;2023-03-14T12:53:28;94579.44;;;9.84;100.00
65614;BME280;52283;49.292;10.572;2023-03-14T12:56:05;94593.00;;;9.80;100.00
65614;BME280;52283;49.292;10.572;2023-03-14T12:58:37;94591.44;;;9.58;100.00